sensor_id;sensor_type;location;lat;lon;timestamp;pressure;altitude;pressure_sealevel;temperature;humidity
40708;BME280;26392;42.696;23.350;2023-05-27T00:00:54;95419.38;;;14.45;100.00
40708;BME280;26392;42.696;23.350;2023-05-27T00:03:20;95418.81;;;14.43;100.00
40708;BME280;26392;42.696;23.350;2023-05-27T00:05:45;95410.28;;;14.45;100.00
40708;BME280;26392;42.696;23.350;2023-05-27T00:08:11;95413.06;;;14.55;100.00
40708;BME280;26392;42.696;23.350;2023-05-27T00:10:37;95406.75;;;14.60;100.00
40708;BME280;26392;42.696;23.350;2023-05-27T00:13:02;95411.13;;;14.66;100.00
40708;BME280;26392;42.696;23.350;2023-05-27T00:15:28;95405.06;;;14.69;100.00
40708;BME280;26392;42.696;23.350;2023-05-27T00:17:53;95406.69;;;14.75;100.00
40708;BME280;26392;42.696;23.350;2023-05-27T00:20:19;95399.84;;;14.77;100.00
40708;BME280;26392;42.696;23.350;2023-05-27T00:22:45;95405.28;;;14.88;100.00
40708;BME280;26392;42.696;23.350;2023-05-27T00:25:12;95400.31;;;14.90;100.00
40708;BME280;26392;42.696;23.350;2023-05-27T00:27:37;95398.13;;;14.97;100.00
40708;BME280;26392;42.696;23.350;2023-05-27T00:30:03;95390.41;;;15.04;100.00
40708;BME280;26392;42.696;23.350;2023-05-27T00:32:29;95385.19;;;15.08;100.00
40708;BME280;26392;42.696;23.350;2023-05-27T00:34:54;95393.97;;;15.10;100.00
40708;BME280;26392;42.696;23.350;2023-05-27T00:37:20;95386.75;;;15.19;100.00
40708;BME280;26392;42.696;23.350;2023-05-27T00:39:45;95382.63;;;15.21;100.00
40708;BME280;26392;42.696;23.350;2023-05-27T00:42:11;95384.81;;;15.25;100.00
40708;BME280;26392;42.696;23.350;2023-05-27T00:44:37;95375.78;;;15.19;100.00
40708;BME280;26392;42.696;23.350;2023-05-27T00:47:02;95372.81;;;15.15;100.00
40708;BME280;26392;42.696;23.350;2023-05-27T00:49:28;95380.72;;;15.22;100.00
40708;BME280;26392;42.696;23.350;2023-05-27T00:51:53;95371.41;;;15.18;100.00
40708;BME280;26392;42.696;23.350;2023-05-27T00:54:19;95376.91;;;15.18;100.00
40708;BME280;26392;42.696;23.350;2023-05-27T00:56:44;95366.53;;;15.10;100.00
40708;BME280;26392;42.696;23.350;2023-05-27T00:59:10;95363.22;;;15.08;100.00
40708;BME280;26392;42.696;23.350;2023-05-27T01:01:36;95362.69;;;15.06;100.00
40708;BME280;26392;42.696;23.350;2023-05-27T01:04:04;95365.19;;;15.02;100.00
40708;BME280;26392;42.696;23.350;2023-05-27T01:06:45;95365.19;;;15.02;100.00
40708;BME280;26392;42.696;23.350;2023-05-27T01:14:33;95337.22;;;14.90;100.00
40708;BME280;26392;42.696;23.350;2023-05-27T01:17:01;95341.91;;;14.89;100.00
40708;BME280;26392;42.696;23.350;2023-05-27T01:19:34;95333.94;;;14.93;100.00
40708;BME280;26392;42.696;23.350;2023-05-27T01:22:00;95331.22;;;14.88;100.00
40708;BME280;26392;42.696;23.350;2023-05-27T01:24:27;95325.19;;;14.91;100.00
40708;BME280;26392;42.696;23.350;2023-05-27T01:26:53;95321.41;;;14.76;100.00
40708;BME280;26392;42.696;23.350;2023-05-27T01:29:19;95317.84;;;14.76;100.00
40708;BME280;26392;42.696;23.350;2023-05-27T01:32:05;95319.97;;;14.89;100.00
40708;BME280;26392;42.696;23.350;2023-05-27T01:34:41;95325.50;;;14.79;100.00
40708;BME280;26392;42.696;23.350;2023-05-27T01:37:09;95313.75;;;14.73;100.00
40708;BME280;26392;42.696;23.350;2023-05-27T01:39:37;95313.66;;;14.89;100.00
40708;BME280;26392;42.696;23.350;2023-05-27T01:42:04;95311.50;;;14.81;100.00
40708;BME280;26392;42.696;23.350;2023-05-27T01:44:34;95305.78;;;14.72;100.00
40708;BME280;26392;42.696;23.350;2023-05-27T01:47:01;95305.53;;;14.73;100.00
40708;BME280;26392;42.696;23.350;2023-05-27T01:49:27;95311.00;;;14.73;100.00
40708;BME280;26392;42.696;23.350;2023-05-27T01:51:53;95309.38;;;14.67;100.00
40708;BME280;26392;42.696;23.350;2023-05-27T01:54:19;95312.16;;;14.62;100.00
40708;BME280;26392;42.696;23.350;2023-05-27T01:56:44;95317.09;;;14.55;100.00
40708;BME280;26392;42.696;23.350;2023-05-27T01:59:09;95318.47;;;14.52;100.00
40708;BME280;26392;42.696;23.350;2023-05-27T02:01:35;95311.06;;;14.48;100.00
40708;BME280;26392;42.696;23.350;2023-05-27T02:04:01;95317.09;;;14.45;100.00
40708;BME280;26392;42.696;23.350;2023-05-27T02:06:26;95319.88;;;14.40;100.00
40708;BME280;26392;42.696;23.350;2023-05-27T02:08:52;95315.47;;;14.39;100.00
40708;BME280;26392;42.696;23.350;2023-05-27T02:11:17;95312.75;;;14.39;100.00
40708;BME280;26392;42.696;23.350;2023-05-27T02:13:43;95303.72;;;14.33;100.00
40708;BME280;26392;42.696;23.350;2023-05-27T02:16:08;95320.72;;;14.30;100.00
40708;BME280;26392;42.696;23.350;2023-05-27T02:18:35;95321.81;;;14.29;100.00
40708;BME280;26392;42.696;23.350;2023-05-27T02:21:00;95314.13;;;14.31;100.00
40708;BME280;26392;42.696;23.350;2023-05-27T02:23:31;95315.22;;;14.30;100.00
40708;BME280;26392;42.696;23.350;2023-05-27T02:25:56;95314.44;;;14.24;100.00
40708;BME280;26392;42.696;23.350;2023-05-27T02:28:22;95321.03;;;14.23;100.00
40708;BME280;26392;42.696;23.350;2023-05-27T02:30:47;95322.38;;;14.26;100.00
40708;BME280;26392;42.696;23.350;2023-05-27T02:33:13;95314.19;;;14.16;100.00
40708;BME280;26392;42.696;23.350;2023-05-27T02:35:38;95321.28;;;14.17;100.00
40708;BME280;26392;42.696;23.350;2023-05-27T02:38:03;95321.03;;;14.18;100.00
40708;BME280;26392;42.696;23.350;2023-05-27T02:40:29;95316.09;;;14.15;100.00
40708;BME280;26392;42.696;23.350;2023-05-27T02:42:58;95318.84;;;14.20;100.00
40708;BME280;26392;42.696;23.350;2023-05-27T02:45:24;95325.69;;;14.23;100.00
40708;BME280;26392;42.696;23.350;2023-05-27T02:47:49;95322.09;;;14.22;100.00
40708;BME280;26392;42.696;23.350;2023-05-27T02:50:15;95329.50;;;14.22;100.00
40708;BME280;26392;42.696;23.350;2023-05-27T02:52:41;95324.81;;;14.38;100.00
40708;BME280;26392;42.696;23.350;2023-05-27T02:55:07;95319.81;;;14.50;100.00
40708;BME280;26392;42.696;23.350;2023-05-27T02:57:33;95324.75;;;14.58;100.00
40708;BME280;26392;42.696;23.350;2023-05-27T02:59:58;95326.69;;;14.63;100.00
40708;BME280;26392;42.696;23.350;2023-05-27T03:02:24;95320.63;;;14.66;100.00
40708;BME280;26392;42.696;23.350;2023-05-27T03:04:50;95317.06;;;14.65;100.00
40708;BME280;26392;42.696;23.350;2023-05-27T03:07:15;95314.03;;;14.67;100.00
40708;BME280;26392;42.696;23.350;2023-05-27T03:09:40;95318.16;;;14.64;100.00
40708;BME280;26392;42.696;23.350;2023-05-27T03:12:06;95321.75;;;14.65;100.00
40708;BME280;26392;42.696;23.350;2023-05-27T03:14:32;95320.91;;;14.64;100.00
40708;BME280;26392;42.696;23.350;2023-05-27T03:16:58;95321.19;;;14.68;100.00
40708;BME280;26392;42.696;23.350;2023-05-27T03:19:23;95328.84;;;14.66;100.00
40708;BME280;26392;42.696;23.350;2023-05-27T03:21:49;95325.81;;;14.72;100.00
40708;BME280;26392;42.696;23.350;2023-05-27T03:24:16;95331.28;;;14.77;100.00
40708;BME280;26392;42.696;23.350;2023-05-27T03:26:41;95329.84;;;14.90;100.00
40708;BME280;26392;42.696;23.350;2023-05-27T03:29:07;95333.59;;;15.10;100.00
40708;BME280;26392;42.696;23.350;2023-05-27T03:31:32;95327.22;;;15.19;100.00
40708;BME280;26392;42.696;23.350;2023-05-27T03:33:58;95327.97;;;15.30;100.00
40708;BME280;26392;42.696;23.350;2023-05-27T03:36:23;95329.59;;;15.31;100.00
40708;BME280;26392;42.696;23.350;2023-05-27T03:38:49;95333.44;;;15.30;100.00
40708;BME280;26392;42.696;23.350;2023-05-27T03:41:14;95344.19;;;15.27;100.00
40708;BME280;26392;42.696;23.350;2023-05-27T03:43:40;95349.94;;;15.30;100.00
40708;BME280;26392;42.696;23.350;2023-05-27T03:46:06;95349.69;;;15.27;100.00
40708;BME280;26392;42.696;23.350;2023-05-27T03:48:32;95338.97;;;15.25;100.00
40708;BME280;26392;42.696;23.350;2023-05-27T03:50:57;95341.72;;;15.25;100.00
40708;BME280;26392;42.696;23.350;2023-05-27T03:53:23;95339.78;;;15.26;100.00
40708;BME280;26392;42.696;23.350;2023-05-27T03:55:48;95338.13;;;15.30;100.00
40708;BME280;26392;42.696;23.350;2023-05-27T03:58:14;95336.22;;;15.25;100.00
40708;BME280;26392;42.696;23.350;2023-05-27T04:00:40;95337.59;;;15.28;100.00
40708;BME280;26392;42.696;23.350;2023-05-27T04:03:07;95340.09;;;15.24;100.00
40708;BME280;26392;42.696;23.350;2023-05-27T04:05:33;95338.97;;;15.25;100.00
40708;BME280;26392;42.696;23.350;2023-05-27T04:08:00;95342.47;;;15.36;100.00
40708;BME280;26392;42.696;23.350;2023-05-27T04:10:25;95340.56;;;15.31;100.00
40708;BME280;26392;42.696;23.350;2023-05-27T04:12:51;95338.91;;;15.35;100.00
40708;BME280;26392;42.696;23.350;2023-05-27T04:15:16;95336.16;;;15.35;100.00
40708;BME280;26392;42.696;23.350;2023-05-27T04:17:42;95344.06;;;15.42;100.00
40708;BME280;26392;42.696;23.350;2023-05-27T04:20:07;95340.50;;;15.47;100.00
40708;BME280;26392;42.696;23.350;2023-05-27T04:22:42;95336.28;;;15.54;100.00
40708;BME280;26392;42.696;23.350;2023-05-27T04:25:08;95337.53;;;15.77;100.00
40708;BME280;26392;42.696;23.350;2023-05-27T04:27:34;95333.84;;;15.92;100.00
40708;BME280;26392;42.696;23.350;2023-05-27T04:30:00;95342.38;;;16.20;100.00
40708;BME280;26392;42.696;23.350;2023-05-27T04:32:26;95339.91;;;16.47;100.00
40708;BME280;26392;42.696;23.350;2023-05-27T04:34:53;95344.22;;;16.77;100.00
40708;BME280;26392;42.696;23.350;2023-05-27T04:37:18;95347.28;;;17.00;100.00
40708;BME280;26392;42.696;23.350;2023-05-27T04:39:45;95340.16;;;17.18;100.00
40708;BME280;26392;42.696;23.350;2023-05-27T04:42:12;95343.19;;;17.16;100.00
40708;BME280;26392;42.696;23.350;2023-05-27T04:44:38;95328.78;;;17.06;100.00
40708;BME280;26392;42.696;23.350;2023-05-27T04:47:05;95348.91;;;17.01;100.00
40708;BME280;26392;42.696;23.350;2023-05-27T04:49:30;95344.06;;;16.93;100.00
40708;BME280;26392;42.696;23.350;2023-05-27T04:51:57;95350.69;;;16.92;100.00
40708;BME280;26392;42.696;23.350;2023-05-27T04:54:23;95336.72;;;17.07;100.00
40708;BME280;26392;42.696;23.350;2023-05-27T04:56:48;95340.53;;;17.11;100.00
40708;BME280;26392;42.696;23.350;2023-05-27T04:59:17;95344.78;;;17.22;100.00
40708;BME280;26392;42.696;23.350;2023-05-27T05:01:45;95344.69;;;17.28;100.00
40708;BME280;26392;42.696;23.350;2023-05-27T05:04:29;95347.03;;;17.39;100.00
40708;BME280;26392;42.696;23.350;2023-05-27T05:06:54;95346.72;;;17.41;100.00
40708;BME280;26392;42.696;23.350;2023-05-27T05:09:21;95339.03;;;17.38;100.00
40708;BME280;26392;42.696;23.350;2023-05-27T05:11:47;95343.06;;;17.27;100.00
40708;BME280;26392;42.696;23.350;2023-05-27T05:14:12;95332.63;;;17.05;100.00
40708;BME280;26392;42.696;23.350;2023-05-27T05:16:38;95344.34;;;16.91;100.00
40708;BME280;26392;42.696;23.350;2023-05-27T05:19:03;95346.44;;;16.75;100.00
40708;BME280;26392;42.696;23.350;2023-05-27T05:21:29;95355.03;;;16.69;100.00
40708;BME280;26392;42.696;23.350;2023-05-27T05:23:55;95354.81;;;16.65;100.00
40708;BME280;26392;42.696;23.350;2023-05-27T05:26:20;95364.13;;;16.69;100.00
40708;BME280;26392;42.696;23.350;2023-05-27T05:28:45;95356.38;;;16.76;100.00
40708;BME280;26392;42.696;23.350;2023-05-27T05:31:11;95361.75;;;16.87;100.00
40708;BME280;26392;42.696;23.350;2023-05-27T05:33:36;95361.91;;;16.95;100.00
40708;BME280;26392;42.696;23.350;2023-05-27T05:36:02;95360.94;;;17.05;100.00
40708;BME280;26392;42.696;23.350;2023-05-27T05:38:28;95365.75;;;17.18;100.00
40708;BME280;26392;42.696;23.350;2023-05-27T05:40:55;95351.69;;;17.20;100.00
40708;BME280;26392;42.696;23.350;2023-05-27T05:43:20;95372.03;;;17.43;100.00
40708;BME280;26392;42.696;23.350;2023-05-27T05:45:46;95371.03;;;17.53;100.00
40708;BME280;26392;42.696;23.350;2023-05-27T05:48:11;95364.94;;;17.56;100.00
40708;BME280;26392;42.696;23.350;2023-05-27T05:50:37;95372.84;;;17.62;100.00
40708;BME280;26392;42.696;23.350;2023-05-27T05:53:02;95371.03;;;17.72;100.00
40708;BME280;26392;42.696;23.350;2023-05-27T05:55:28;95373.28;;;17.70;100.00
40708;BME280;26392;42.696;23.350;2023-05-27T05:57:53;95368.22;;;17.58;100.00
40708;BME280;26392;42.696;23.350;2023-05-27T06:00:18;95365.25;;;17.54;100.00
40708;BME280;26392;42.696;23.350;2023-05-27T06:02:44;95364.94;;;17.56;100.00
40708;BME280;26392;42.696;23.350;2023-05-27T06:05:10;95363.97;;;17.28;100.00
40708;BME280;26392;42.696;23.350;2023-05-27T06:07:35;95382.13;;;17.29;100.00
40708;BME280;26392;42.696;23.350;2023-05-27T06:10:01;95383.97;;;17.33;100.00
40708;BME280;26392;42.696;23.350;2023-05-27T06:12:26;95383.47;;;17.50;100.00
40708;BME280;26392;42.696;23.350;2023-05-27T06:14:51;95374.69;;;17.67;100.00
40708;BME280;26392;42.696;23.350;2023-05-27T06:17:17;95374.19;;;17.84;100.00
40708;BME280;26392;42.696;23.350;2023-05-27T06:19:42;95379.94;;;17.87;100.00
40708;BME280;26392;42.696;23.350;2023-05-27T06:22:08;95368.66;;;17.84;100.00
40708;BME280;26392;42.696;23.350;2023-05-27T06:24:33;95384.91;;;17.85;100.00
40708;BME280;26392;42.696;23.350;2023-05-27T06:26:58;95380.69;;;17.93;100.00
40708;BME280;26392;42.696;23.350;2023-05-27T06:29:24;95387.81;;;17.94;100.00
40708;BME280;26392;42.696;23.350;2023-05-27T06:31:49;95383.94;;;17.95;100.00
40708;BME280;26392;42.696;23.350;2023-05-27T06:34:16;95390.34;;;17.91;100.00
40708;BME280;26392;42.696;23.350;2023-05-27T06:36:41;95396.06;;;18.13;100.00
40708;BME280;26392;42.696;23.350;2023-05-27T06:39:07;95397.31;;;18.21;100.00
40708;BME280;26392;42.696;23.350;2023-05-27T06:41:32;95380.78;;;18.21;100.00
40708;BME280;26392;42.696;23.350;2023-05-27T06:43:58;95393.16;;;18.37;100.00
40708;BME280;26392;42.696;23.350;2023-05-27T06:46:23;95394.53;;;18.53;100.00
40708;BME280;26392;42.696;23.350;2023-05-27T06:48:49;95388.31;;;18.62;100.00
40708;BME280;26392;42.696;23.350;2023-05-27T06:51:14;95373.25;;;18.54;100.00
40708;BME280;26392;42.696;23.350;2023-05-27T06:53:40;95396.09;;;18.73;100.00
40708;BME280;26392;42.696;23.350;2023-05-27T06:56:06;95393.50;;;18.82;100.00
40708;BME280;26392;42.696;23.350;2023-05-27T06:58:31;95391.31;;;19.07;100.00
40708;BME280;26392;42.696;23.350;2023-05-27T07:00:57;95399.94;;;19.19;100.00
40708;BME280;26392;42.696;23.350;2023-05-27T07:03:22;95395.22;;;19.33;100.00
40708;BME280;26392;42.696;23.350;2023-05-27T07:05:48;95395.19;;;19.47;100.00
40708;BME280;26392;42.696;23.350;2023-05-27T07:08:13;95403.34;;;19.66;100.00
40708;BME280;26392;42.696;23.350;2023-05-27T07:10:39;95404.56;;;19.74;100.00
40708;BME280;26392;42.696;23.350;2023-05-27T07:13:05;95402.50;;;19.79;100.00
40708;BME280;26392;42.696;23.350;2023-05-27T07:15:30;95396.72;;;19.67;100.00
40708;BME280;26392;42.696;23.350;2023-05-27T07:17:56;95406.41;;;19.78;100.00
40708;BME280;26392;42.696;23.350;2023-05-27T07:20:22;95401.75;;;19.87;100.00
40708;BME280;26392;42.696;23.350;2023-05-27T07:22:48;95392.25;;;19.80;100.00
40708;BME280;26392;42.696;23.350;2023-05-27T07:25:13;95405.09;;;19.76;100.00
40708;BME280;26392;42.696;23.350;2023-05-27T07:27:38;95399.66;;;19.71;100.00
40708;BME280;26392;42.696;23.350;2023-05-27T07:30:04;95405.19;;;19.71;100.00
40708;BME280;26392;42.696;23.350;2023-05-27T07:32:30;95402.84;;;19.64;100.00
40708;BME280;26392;42.696;23.350;2023-05-27T07:34:56;95407.78;;;19.67;100.00
40708;BME280;26392;42.696;23.350;2023-05-27T07:37:22;95403.06;;;19.67;100.00
40708;BME280;26392;42.696;23.350;2023-05-27T07:39:49;95405.97;;;19.85;100.00
40708;BME280;26392;42.696;23.350;2023-05-27T07:42:16;95405.63;;;20.00;100.00
40708;BME280;26392;42.696;23.350;2023-05-27T07:44:42;95396.44;;;20.13;100.00
40708;BME280;26392;42.696;23.350;2023-05-27T07:47:07;95404.88;;;20.31;100.00
40708;BME280;26392;42.696;23.350;2023-05-27T07:49:33;95397.06;;;20.33;100.00
40708;BME280;26392;42.696;23.350;2023-05-27T07:51:58;95403.16;;;20.44;100.00
40708;BME280;26392;42.696;23.350;2023-05-27T07:54:24;95402.47;;;20.38;100.00
40708;BME280;26392;42.696;23.350;2023-05-27T07:56:49;95405.56;;;20.14;100.00
40708;BME280;26392;42.696;23.350;2023-05-27T07:59:14;95406.50;;;20.09;100.00
40708;BME280;26392;42.696;23.350;2023-05-27T08:01:40;95407.03;;;20.11;100.00
40708;BME280;26392;42.696;23.350;2023-05-27T08:04:05;95408.72;;;20.21;100.00
40708;BME280;26392;42.696;23.350;2023-05-27T08:06:31;95417.56;;;20.32;100.00
40708;BME280;26392;42.696;23.350;2023-05-27T08:08:56;95417.50;;;20.46;100.00
40708;BME280;26392;42.696;23.350;2023-05-27T08:11:24;95411.41;;;20.35;100.00
40708;BME280;26392;42.696;23.350;2023-05-27T08:13:50;95411.66;;;20.25;100.00
40708;BME280;26392;42.696;23.350;2023-05-27T08:16:16;95409.16;;;20.15;100.00
40708;BME280;26392;42.696;23.350;2023-05-27T08:18:42;95412.16;;;20.27;100.00
40708;BME280;26392;42.696;23.350;2023-05-27T08:21:07;95410.25;;;20.36;100.00
40708;BME280;26392;42.696;23.350;2023-05-27T08:23:32;95414.22;;;20.44;100.00
40708;BME280;26392;42.696;23.350;2023-05-27T08:25:58;95408.75;;;20.52;100.00
40708;BME280;26392;42.696;23.350;2023-05-27T08:28:23;95403.16;;;20.66;100.00
40708;BME280;26392;42.696;23.350;2023-05-27T08:30:49;95408.56;;;20.71;100.00
40708;BME280;26392;42.696;23.350;2023-05-27T08:33:14;95409.97;;;20.15;100.00
40708;BME280;26392;42.696;23.350;2023-05-27T08:35:40;95415.66;;;19.96;100.00
40708;BME280;26392;42.696;23.350;2023-05-27T08:38:06;95412.66;;;20.06;100.00
40708;BME280;26392;42.696;23.350;2023-05-27T08:40:31;95413.59;;;20.02;100.00
40708;BME280;26392;42.696;23.350;2023-05-27T08:42:57;95398.94;;;19.79;100.00
40708;BME280;26392;42.696;23.350;2023-05-27T08:45:22;95397.53;;;19.67;100.00
40708;BME280;26392;42.696;23.350;2023-05-27T08:47:48;95407.34;;;19.74;100.00
40708;BME280;26392;42.696;23.350;2023-05-27T08:50:14;95405.19;;;19.71;100.00
40708;BME280;26392;42.696;23.350;2023-05-27T08:53:00;95401.88;;;19.82;100.00
40708;BME280;26392;42.696;23.350;2023-05-27T08:55:27;95409.22;;;20.01;100.00
40708;BME280;26392;42.696;23.350;2023-05-27T08:57:57;95400.84;;;20.15;100.00
40708;BME280;26392;42.696;23.350;2023-05-27T09:00:24;95400.50;;;19.94;100.00
40708;BME280;26392;42.696;23.350;2023-05-27T09:02:50;95408.69;;;19.99;100.00
40708;BME280;26392;42.696;23.350;2023-05-27T09:05:16;95401.81;;;19.74;100.00
40708;BME280;26392;42.696;23.350;2023-05-27T09:07:43;95401.03;;;19.96;100.00
40708;BME280;26392;42.696;23.350;2023-05-27T09:10:09;95397.91;;;20.11;100.00
40708;BME280;26392;42.696;23.350;2023-05-27T09:12:35;95403.22;;;20.07;100.00
40708;BME280;26392;42.696;23.350;2023-05-27T09:15:04;95395.56;;;20.04;100.00
40708;BME280;26392;42.696;23.350;2023-05-27T09:17:30;95395.16;;;20.11;100.00
40708;BME280;26392;42.696;23.350;2023-05-27T09:19:56;95391.13;;;20.17;100.00
40708;BME280;26392;42.696;23.350;2023-05-27T09:22:31;95395.16;;;20.11;100.00
40708;BME280;26392;42.696;23.350;2023-05-27T09:24:57;95380.03;;;19.95;100.00
40708;BME280;26392;42.696;23.350;2023-05-27T09:27:30;95368.47;;;19.93;100.00
40708;BME280;26392;42.696;23.350;2023-05-27T09:29:57;95388.47;;;20.12;100.00
40708;BME280;26392;42.696;23.350;2023-05-27T09:32:27;95387.69;;;20.43;100.00
40708;BME280;26392;42.696;23.350;2023-05-27T09:34:56;95388.28;;;20.53;100.00
40708;BME280;26392;42.696;23.350;2023-05-27T09:37:25;95388.03;;;20.72;100.00
40708;BME280;26392;42.696;23.350;2023-05-27T09:39:57;95375.78;;;20.96;97.67
40708;BME280;26392;42.696;23.350;2023-05-27T09:42:23;95380.25;;;21.14;100.00
40708;BME280;26392;42.696;23.350;2023-05-27T09:44:49;95387.88;;;21.40;100.00
40708;BME280;26392;42.696;23.350;2023-05-27T09:47:16;95378.78;;;21.65;97.76
40708;BME280;26392;42.696;23.350;2023-05-27T09:49:42;95375.88;;;21.79;88.28
40708;BME280;26392;42.696;23.350;2023-05-27T09:52:10;95383.53;;;22.00;86.29
40708;BME280;26392;42.696;23.350;2023-05-27T09:54:37;95380.13;;;22.20;83.84
40708;BME280;26392;42.696;23.350;2023-05-27T09:57:06;95371.47;;;22.30;79.48
40708;BME280;26392;42.696;23.350;2023-05-27T09:59:33;95377.97;;;22.52;79.64
40708;BME280;26392;42.696;23.350;2023-05-27T10:02:00;95368.38;;;22.88;74.02
40708;BME280;26392;42.696;23.350;2023-05-27T10:04:28;95377.41;;;23.23;73.64
40708;BME280;26392;42.696;23.350;2023-05-27T10:06:54;95374.06;;;23.38;70.96
40708;BME280;26392;42.696;23.350;2023-05-27T10:09:19;95365.19;;;23.45;72.95
40708;BME280;26392;42.696;23.350;2023-05-27T10:11:45;95378.09;;;23.79;71.88
40708;BME280;26392;42.696;23.350;2023-05-27T10:14:11;95355.06;;;23.70;69.83
40708;BME280;26392;42.696;23.350;2023-05-27T10:16:37;95367.53;;;23.64;70.07
40708;BME280;26392;42.696;23.350;2023-05-27T10:19:11;95362.59;;;23.40;69.65
40708;BME280;26392;42.696;23.350;2023-05-27T10:21:42;95364.91;;;23.38;71.70
40708;BME280;26392;42.696;23.350;2023-05-27T10:24:10;95363.78;;;23.39;70.32
40708;BME280;26392;42.696;23.350;2023-05-27T10:26:43;95363.97;;;23.55;70.33
40708;BME280;26392;42.696;23.350;2023-05-27T10:29:13;95347.19;;;22.74;70.72
40708;BME280;26392;42.696;23.350;2023-05-27T10:34:14;95345.84;;;21.99;75.79
40708;BME280;26392;42.696;23.350;2023-05-27T10:36:40;95350.88;;;22.14;79.33
40708;BME280;26392;42.696;23.350;2023-05-27T10:39:12;95352.69;;;22.27;77.50
40708;BME280;26392;42.696;23.350;2023-05-27T10:41:48;95354.16;;;22.07;79.02
40708;BME280;26392;42.696;23.350;2023-05-27T10:44:28;95334.38;;;21.39;79.56
40708;BME280;26392;42.696;23.350;2023-05-27T10:47:00;95347.13;;;21.40;84.71
40708;BME280;26392;42.696;23.350;2023-05-27T10:49:33;95340.47;;;21.76;83.49
40708;BME280;26392;42.696;23.350;2023-05-27T10:52:08;95335.06;;;22.06;81.06
40708;BME280;26392;42.696;23.350;2023-05-27T10:54:41;95337.50;;;21.81;78.41
40708;BME280;26392;42.696;23.350;2023-05-27T10:57:07;95334.09;;;21.93;81.96
40708;BME280;26392;42.696;23.350;2023-05-27T10:59:49;95333.44;;;22.22;77.99
40708;BME280;26392;42.696;23.350;2023-05-27T11:02:15;95314.13;;;22.43;75.70
40708;BME280;26392;42.696;23.350;2023-05-27T11:04:41;95336.97;;;22.58;75.39
40708;BME280;26392;42.696;23.350;2023-05-27T11:07:06;95331.81;;;22.30;73.83
40708;BME280;26392;42.696;23.350;2023-05-27T11:12:30;95330.03;;;21.90;77.46
40708;BME280;26392;42.696;23.350;2023-05-27T11:14:56;95329.03;;;21.69;79.84
40708;BME280;26392;42.696;23.350;2023-05-27T11:17:22;95321.19;;;22.23;78.20
40708;BME280;26392;42.696;23.350;2023-05-27T11:19:48;95302.91;;;22.31;74.76
40708;BME280;26392;42.696;23.350;2023-05-27T11:22:15;95317.34;;;22.54;75.41
40708;BME280;26392;42.696;23.350;2023-05-27T11:24:42;95311.28;;;22.69;72.23
40708;BME280;26392;42.696;23.350;2023-05-27T11:27:14;95302.03;;;22.48;71.22
40708;BME280;26392;42.696;23.350;2023-05-27T11:29:49;95309.84;;;22.54;74.93
40708;BME280;26392;42.696;23.350;2023-05-27T11:32:18;95297.34;;;22.78;74.32
40708;BME280;26392;42.696;23.350;2023-05-27T11:34:45;95300.72;;;22.92;68.35
40708;BME280;26392;42.696;23.350;2023-05-27T11:37:11;95306.38;;;22.66;69.73
40708;BME280;26392;42.696;23.350;2023-05-27T11:39:37;95291.94;;;22.82;72.05
40708;BME280;26392;42.696;23.350;2023-05-27T11:42:08;95292.53;;;22.96;72.54
40708;BME280;26392;42.696;23.350;2023-05-27T11:44:34;95285.94;;;23.09;66.55
40708;BME280;26392;42.696;23.350;2023-05-27T11:47:00;95282.34;;;23.09;66.46
40708;BME280;26392;42.696;23.350;2023-05-27T11:49:27;95275.50;;;23.36;62.86
40708;BME280;26392;42.696;23.350;2023-05-27T11:51:55;95282.78;;;23.40;63.25
40708;BME280;26392;42.696;23.350;2023-05-27T11:54:25;95286.19;;;23.46;61.98
40708;BME280;26392;42.696;23.350;2023-05-27T11:56:53;95273.34;;;23.33;64.06
40708;BME280;26392;42.696;23.350;2023-05-27T11:59:20;95270.31;;;23.26;65.05
40708;BME280;26392;42.696;23.350;2023-05-27T12:01:46;95273.97;;;23.38;66.30
40708;BME280;26392;42.696;23.350;2023-05-27T12:04:11;95267.81;;;23.54;67.76
40708;BME280;26392;42.696;23.350;2023-05-27T12:06:37;95271.22;;;23.59;62.87
40708;BME280;26392;42.696;23.350;2023-05-27T12:09:07;95272.19;;;23.84;62.74
40708;BME280;26392;42.696;23.350;2023-05-27T12:11:34;95265.34;;;24.15;60.60
40708;BME280;26392;42.696;23.350;2023-05-27T12:14:00;95264.22;;;24.28;60.66
40708;BME280;26392;42.696;23.350;2023-05-27T12:16:25;95253.97;;;24.78;59.24
40708;BME280;26392;42.696;23.350;2023-05-27T12:18:51;95253.75;;;25.20;57.47
40708;BME280;26392;42.696;23.350;2023-05-27T12:21:17;95249.66;;;25.42;54.03
40708;BME280;26392;42.696;23.350;2023-05-27T12:23:43;95242.09;;;25.55;53.29
40708;BME280;26392;42.696;23.350;2023-05-27T12:26:09;95239.38;;;25.18;53.79
40708;BME280;26392;42.696;23.350;2023-05-27T12:28:37;95231.59;;;24.62;55.92
40708;BME280;26392;42.696;23.350;2023-05-27T12:31:03;95227.19;;;24.86;53.12
40708;BME280;26392;42.696;23.350;2023-05-27T12:33:29;95227.63;;;24.63;54.60
40708;BME280;26392;42.696;23.350;2023-05-27T12:35:55;95221.13;;;24.47;56.51
40708;BME280;26392;42.696;23.350;2023-05-27T12:38:21;95222.59;;;24.32;57.66
40708;BME280;26392;42.696;23.350;2023-05-27T12:40:46;95209.19;;;24.01;56.35
40708;BME280;26392;42.696;23.350;2023-05-27T12:43:12;95210.72;;;23.77;58.32
40708;BME280;26392;42.696;23.350;2023-05-27T12:45:37;95203.81;;;22.91;64.11
40708;BME280;26392;42.696;23.350;2023-05-27T12:48:03;95203.41;;;23.10;65.32
40708;BME280;26392;42.696;23.350;2023-05-27T12:50:28;95200.97;;;23.08;63.09